sensor_id;sensor_type;location;lat;lon;timestamp;P1;durP1;ratioP1;P2;durP2;ratioP2
9771;SDS011;4925;52.588;13.370;2023-06-14T00:05:52;3.27;;;1.90;;
9771;SDS011;4925;52.588;13.370;2023-06-14T00:08:18;2.10;;;1.93;;
9771;SDS011;4925;52.588;13.370;2023-06-14T00:10:46;5.43;;;2.03;;
9771;SDS011;4925;52.588;13.370;2023-06-14T00:13:12;4.10;;;2.35;;
9771;SDS011;4925;52.588;13.370;2023-06-14T00:15:38;2.70;;;1.97;;
9771;SDS011;4925;52.588;13.370;2023-06-14T00:18:04;2.90;;;2.30;;
9771;SDS011;4925;52.588;13.370;2023-06-14T00:20:30;4.70;;;1.80;;
9771;SDS011;4925;52.588;13.370;2023-06-14T00:22:58;5.83;;;1.80;;
9771;SDS011;4925;52.588;13.370;2023-06-14T00:25:26;2.10;;;1.90;;
9771;SDS011;4925;52.588;13.370;2023-06-14T00:27:53;3.63;;;2.10;;
9771;SDS011;4925;52.588;13.370;2023-06-14T00:30:20;2.20;;;2.00;;
9771;SDS011;4925;52.588;13.370;2023-06-14T00:32:46;2.20;;;1.70;;
9771;SDS011;4925;52.588;13.370;2023-06-14T00:35:12;5.93;;;2.10;;
9771;SDS011;4925;52.588;13.370;2023-06-14T00:37:38;3.47;;;1.90;;
9771;SDS011;4925;52.588;13.370;2023-06-14T00:40:04;2.57;;;1.90;;
9771;SDS011;4925;52.588;13.370;2023-06-14T00:42:30;1.77;;;1.67;;
9771;SDS011;4925;52.588;13.370;2023-06-14T00:44:56;3.17;;;1.90;;
9771;SDS011;4925;52.588;13.370;2023-06-14T00:47:22;3.97;;;1.80;;
9771;SDS011;4925;52.588;13.370;2023-06-14T00:49:49;3.60;;;2.00;;
9771;SDS011;4925;52.588;13.370;2023-06-14T00:52:19;3.13;;;1.80;;
9771;SDS011;4925;52.588;13.370;2023-06-14T00:54:45;3.13;;;2.27;;
9771;SDS011;4925;52.588;13.370;2023-06-14T00:57:11;6.33;;;2.23;;
9771;SDS011;4925;52.588;13.370;2023-06-14T00:59:42;2.93;;;1.90;;
9771;SDS011;4925;52.588;13.370;2023-06-14T01:02:12;3.27;;;2.00;;
9771;SDS011;4925;52.588;13.370;2023-06-14T01:04:40;4.70;;;2.33;;
9771;SDS011;4925;52.588;13.370;2023-06-14T01:12:59;2.73;;;2.10;;
9771;SDS011;4925;52.588;13.370;2023-06-14T01:15:30;5.37;;;2.43;;
9771;SDS011;4925;52.588;13.370;2023-06-14T01:17:57;2.43;;;1.90;;
9771;SDS011;4925;52.588;13.370;2023-06-14T01:20:28;2.83;;;2.57;;
9771;SDS011;4925;52.588;13.370;2023-06-14T01:22:56;2.33;;;2.10;;
9771;SDS011;4925;52.588;13.370;2023-06-14T01:25:22;3.30;;;2.37;;
9771;SDS011;4925;52.588;13.370;2023-06-14T01:27:48;2.23;;;2.03;;
9771;SDS011;4925;52.588;13.370;2023-06-14T01:30:16;2.87;;;2.40;;
9771;SDS011;4925;52.588;13.370;2023-06-14T01:32:42;3.03;;;2.27;;
9771;SDS011;4925;52.588;13.370;2023-06-14T01:35:09;2.37;;;2.17;;
9771;SDS011;4925;52.588;13.370;2023-06-14T01:37:36;4.93;;;2.20;;
9771;SDS011;4925;52.588;13.370;2023-06-14T01:40:03;2.53;;;2.33;;
9771;SDS011;4925;52.588;13.370;2023-06-14T01:42:31;2.10;;;2.00;;
9771;SDS011;4925;52.588;13.370;2023-06-14T01:45:00;4.27;;;2.37;;
9771;SDS011;4925;52.588;13.370;2023-06-14T01:47:28;2.50;;;2.30;;
9771;SDS011;4925;52.588;13.370;2023-06-14T01:49:55;3.90;;;2.27;;
9771;SDS011;4925;52.588;13.370;2023-06-14T01:52:20;2.20;;;2.00;;
9771;SDS011;4925;52.588;13.370;2023-06-14T01:54:47;5.97;;;2.60;;
9771;SDS011;4925;52.588;13.370;2023-06-14T01:57:14;4.60;;;3.00;;
9771;SDS011;4925;52.588;13.370;2023-06-14T01:59:40;2.60;;;2.23;;
9771;SDS011;4925;52.588;13.370;2023-06-14T02:02:06;2.73;;;2.37;;
9771;SDS011;4925;52.588;13.370;2023-06-14T02:04:31;5.27;;;2.97;;
9771;SDS011;4925;52.588;13.370;2023-06-14T02:06:58;3.03;;;2.83;;
9771;SDS011;4925;52.588;13.370;2023-06-14T02:09:24;4.43;;;3.77;;
9771;SDS011;4925;52.588;13.370;2023-06-14T02:11:50;6.33;;;4.33;;
9771;SDS011;4925;52.588;13.370;2023-06-14T02:14:16;5.10;;;4.00;;
9771;SDS011;4925;52.588;13.370;2023-06-14T02:16:42;4.17;;;3.77;;
9771;SDS011;4925;52.588;13.370;2023-06-14T02:19:17;6.20;;;3.57;;
9771;SDS011;4925;52.588;13.370;2023-06-14T02:21:44;3.33;;;3.00;;
9771;SDS011;4925;52.588;13.370;2023-06-14T02:24:10;6.43;;;3.63;;
9771;SDS011;4925;52.588;13.370;2023-06-14T02:26:36;4.57;;;3.10;;
9771;SDS011;4925;52.588;13.370;2023-06-14T02:29:08;4.53;;;2.63;;
9771;SDS011;4925;52.588;13.370;2023-06-14T02:31:36;6.20;;;2.83;;
9771;SDS011;4925;52.588;13.370;2023-06-14T02:34:02;3.37;;;2.67;;
9771;SDS011;4925;52.588;13.370;2023-06-14T02:36:27;8.70;;;3.20;;
9771;SDS011;4925;52.588;13.370;2023-06-14T02:38:56;3.10;;;2.50;;
9771;SDS011;4925;52.588;13.370;2023-06-14T02:41:25;3.07;;;2.70;;
9771;SDS011;4925;52.588;13.370;2023-06-14T02:43:51;2.90;;;2.70;;
9771;SDS011;4925;52.588;13.370;2023-06-14T02:46:18;4.07;;;2.60;;
9771;SDS011;4925;52.588;13.370;2023-06-14T02:48:43;5.73;;;2.87;;
9771;SDS011;4925;52.588;13.370;2023-06-14T02:51:09;2.93;;;2.30;;
9771;SDS011;4925;52.588;13.370;2023-06-14T02:53:35;6.70;;;2.70;;
9771;SDS011;4925;52.588;13.370;2023-06-14T02:56:01;8.33;;;3.00;;
9771;SDS011;4925;52.588;13.370;2023-06-14T02:58:29;6.97;;;2.70;;
9771;SDS011;4925;52.588;13.370;2023-06-14T03:00:55;8.63;;;3.33;;
9771;SDS011;4925;52.588;13.370;2023-06-14T03:03:20;10.73;;;3.40;;
9771;SDS011;4925;52.588;13.370;2023-06-14T03:05:49;4.63;;;3.23;;
9771;SDS011;4925;52.588;13.370;2023-06-14T03:08:16;4.97;;;3.23;;
9771;SDS011;4925;52.588;13.370;2023-06-14T03:10:45;2.80;;;2.60;;
9771;SDS011;4925;52.588;13.370;2023-06-14T03:13:11;5.20;;;3.00;;
9771;SDS011;4925;52.588;13.370;2023-06-14T03:15:43;5.03;;;3.00;;
9771;SDS011;4925;52.588;13.370;2023-06-14T03:18:10;3.23;;;2.93;;
9771;SDS011;4925;52.588;13.370;2023-06-14T03:20:37;5.03;;;3.00;;
9771;SDS011;4925;52.588;13.370;2023-06-14T03:23:04;10.57;;;3.17;;
9771;SDS011;4925;52.588;13.370;2023-06-14T03:25:30;3.70;;;3.30;;
9771;SDS011;4925;52.588;13.370;2023-06-14T03:27:58;5.67;;;3.90;;
9771;SDS011;4925;52.588;13.370;2023-06-14T03:30:24;8.63;;;3.63;;
9771;SDS011;4925;52.588;13.370;2023-06-14T03:32:49;7.20;;;3.40;;
9771;SDS011;4925;52.588;13.370;2023-06-14T03:35:17;6.90;;;3.73;;
9771;SDS011;4925;52.588;13.370;2023-06-14T03:37:44;5.57;;;3.20;;
9771;SDS011;4925;52.588;13.370;2023-06-14T03:40:10;9.07;;;4.30;;
9771;SDS011;4925;52.588;13.370;2023-06-14T03:42:37;4.83;;;3.77;;
9771;SDS011;4925;52.588;13.370;2023-06-14T03:45:03;9.37;;;4.30;;
9771;SDS011;4925;52.588;13.370;2023-06-14T03:47:29;7.97;;;4.00;;
9771;SDS011;4925;52.588;13.370;2023-06-14T03:49:55;10.33;;;4.50;;
9771;SDS011;4925;52.588;13.370;2023-06-14T03:52:21;5.00;;;3.50;;
9771;SDS011;4925;52.588;13.370;2023-06-14T03:54:48;10.33;;;4.13;;
9771;SDS011;4925;52.588;13.370;2023-06-14T03:57:14;13.00;;;4.07;;
9771;SDS011;4925;52.588;13.370;2023-06-14T03:59:40;9.10;;;3.97;;
9771;SDS011;4925;52.588;13.370;2023-06-14T04:02:06;4.27;;;3.50;;
9771;SDS011;4925;52.588;13.370;2023-06-14T04:04:32;7.00;;;3.57;;
9771;SDS011;4925;52.588;13.370;2023-06-14T04:07:00;5.33;;;3.03;;
9771;SDS011;4925;52.588;13.370;2023-06-14T04:09:28;9.97;;;3.97;;
9771;SDS011;4925;52.588;13.370;2023-06-14T04:11:55;7.47;;;3.80;;
9771;SDS011;4925;52.588;13.370;2023-06-14T04:14:21;7.80;;;3.83;;
9771;SDS011;4925;52.588;13.370;2023-06-14T04:16:47;5.03;;;3.77;;
9771;SDS011;4925;52.588;13.370;2023-06-14T04:19:14;6.20;;;3.63;;
9771;SDS011;4925;52.588;13.370;2023-06-14T04:21:40;6.67;;;4.50;;
9771;SDS011;4925;52.588;13.370;2023-06-14T04:24:06;8.63;;;4.70;;
9771;SDS011;4925;52.588;13.370;2023-06-14T04:26:42;7.87;;;4.20;;
9771;SDS011;4925;52.588;13.370;2023-06-14T04:29:13;4.97;;;3.40;;
9771;SDS011;4925;52.588;13.370;2023-06-14T04:31:41;4.60;;;3.73;;
9771;SDS011;4925;52.588;13.370;2023-06-14T04:34:07;7.10;;;4.27;;
9771;SDS011;4925;52.588;13.370;2023-06-14T04:36:33;7.53;;;3.97;;
9771;SDS011;4925;52.588;13.370;2023-06-14T04:39:02;6.37;;;4.23;;
9771;SDS011;4925;52.588;13.370;2023-06-14T04:41:29;5.60;;;3.77;;
9771;SDS011;4925;52.588;13.370;2023-06-14T04:43:55;11.37;;;3.90;;
9771;SDS011;4925;52.588;13.370;2023-06-14T04:46:26;6.43;;;4.07;;
9771;SDS011;4925;52.588;13.370;2023-06-14T04:48:53;8.13;;;4.10;;
9771;SDS011;4925;52.588;13.370;2023-06-14T04:51:19;10.17;;;4.47;;
9771;SDS011;4925;52.588;13.370;2023-06-14T04:53:47;6.17;;;4.00;;
9771;SDS011;4925;52.588;13.370;2023-06-14T04:56:14;6.00;;;3.47;;
9771;SDS011;4925;52.588;13.370;2023-06-14T04:58:41;7.73;;;4.63;;
9771;SDS011;4925;52.588;13.370;2023-06-14T05:01:08;9.60;;;4.33;;
9771;SDS011;4925;52.588;13.370;2023-06-14T05:03:34;7.87;;;4.23;;
9771;SDS011;4925;52.588;13.370;2023-06-14T05:06:00;7.07;;;4.43;;
9771;SDS011;4925;52.588;13.370;2023-06-14T05:08:25;7.93;;;4.53;;
9771;SDS011;4925;52.588;13.370;2023-06-14T05:10:52;7.27;;;4.60;;
9771;SDS011;4925;52.588;13.370;2023-06-14T05:13:18;13.27;;;4.80;;
9771;SDS011;4925;52.588;13.370;2023-06-14T05:15:43;10.13;;;4.70;;
9771;SDS011;4925;52.588;13.370;2023-06-14T05:18:09;10.23;;;4.50;;
9771;SDS011;4925;52.588;13.370;2023-06-14T05:20:35;13.93;;;7.17;;
9771;SDS011;4925;52.588;13.370;2023-06-14T05:23:02;17.97;;;13.13;;
9771;SDS011;4925;52.588;13.370;2023-06-14T05:25:28;16.80;;;12.97;;
9771;SDS011;4925;52.588;13.370;2023-06-14T05:27:53;8.53;;;4.87;;
9771;SDS011;4925;52.588;13.370;2023-06-14T05:30:19;12.33;;;4.40;;
9771;SDS011;4925;52.588;13.370;2023-06-14T05:32:45;17.77;;;5.67;;
9771;SDS011;4925;52.588;13.370;2023-06-14T05:35:11;9.07;;;4.30;;
9771;SDS011;4925;52.588;13.370;2023-06-14T05:37:37;9.20;;;4.20;;
9771;SDS011;4925;52.588;13.370;2023-06-14T05:40:03;7.20;;;4.70;;
9771;SDS011;4925;52.588;13.370;2023-06-14T05:42:31;9.27;;;4.13;;
9771;SDS011;4925;52.588;13.370;2023-06-14T05:44:57;10.87;;;4.67;;
9771;SDS011;4925;52.588;13.370;2023-06-14T05:47:22;6.63;;;4.90;;
9771;SDS011;4925;52.588;13.370;2023-06-14T05:49:48;12.57;;;4.80;;
9771;SDS011;4925;52.588;13.370;2023-06-14T05:52:14;8.32;;;4.10;;
9771;SDS011;4925;52.588;13.370;2023-06-14T05:54:39;5.70;;;4.07;;
9771;SDS011;4925;52.588;13.370;2023-06-14T05:57:06;8.38;;;4.25;;
9771;SDS011;4925;52.588;13.370;2023-06-14T05:59:32;5.72;;;4.03;;
9771;SDS011;4925;52.588;13.370;2023-06-14T06:01:57;6.22;;;4.43;;
9771;SDS011;4925;52.588;13.370;2023-06-14T06:04:23;4.03;;;3.63;;
9771;SDS011;4925;52.588;13.370;2023-06-14T06:06:49;9.90;;;4.22;;
9771;SDS011;4925;52.588;13.370;2023-06-14T06:09:15;5.63;;;4.22;;
9771;SDS011;4925;52.588;13.370;2023-06-14T06:11:40;8.00;;;4.50;;
9771;SDS011;4925;52.588;13.370;2023-06-14T06:14:06;5.22;;;3.60;;
9771;SDS011;4925;52.588;13.370;2023-06-14T06:16:32;8.32;;;4.47;;
9771;SDS011;4925;52.588;13.370;2023-06-14T06:18:58;15.35;;;4.78;;
9771;SDS011;4925;52.588;13.370;2023-06-14T06:21:24;7.80;;;3.90;;
9771;SDS011;4925;52.588;13.370;2023-06-14T06:23:50;11.85;;;4.05;;
9771;SDS011;4925;52.588;13.370;2023-06-14T06:26:15;15.07;;;5.05;;
9771;SDS011;4925;52.588;13.370;2023-06-14T06:28:41;9.27;;;4.60;;
9771;SDS011;4925;52.588;13.370;2023-06-14T06:31:07;5.80;;;4.20;;
9771;SDS011;4925;52.588;13.370;2023-06-14T06:33:32;12.93;;;3.95;;
9771;SDS011;4925;52.588;13.370;2023-06-14T06:35:58;12.23;;;5.03;;
9771;SDS011;4925;52.588;13.370;2023-06-14T06:38:24;9.65;;;4.35;;
9771;SDS011;4925;52.588;13.370;2023-06-14T06:40:50;17.70;;;4.03;;
9771;SDS011;4925;52.588;13.370;2023-06-14T06:43:16;6.93;;;4.25;;
9771;SDS011;4925;52.588;13.370;2023-06-14T06:45:42;7.13;;;4.50;;
9771;SDS011;4925;52.588;13.370;2023-06-14T06:48:08;9.32;;;4.20;;
9771;SDS011;4925;52.588;13.370;2023-06-14T06:50:36;10.32;;;3.97;;
9771;SDS011;4925;52.588;13.370;2023-06-14T06:53:02;9.15;;;4.35;;
9771;SDS011;4925;52.588;13.370;2023-06-14T06:55:28;9.45;;;4.45;;
9771;SDS011;4925;52.588;13.370;2023-06-14T06:57:54;8.77;;;4.40;;
9771;SDS011;4925;52.588;13.370;2023-06-14T07:00:20;7.82;;;5.32;;
9771;SDS011;4925;52.588;13.370;2023-06-14T07:02:46;10.05;;;3.78;;
9771;SDS011;4925;52.588;13.370;2023-06-14T07:05:12;6.22;;;4.50;;
9771;SDS011;4925;52.588;13.370;2023-06-14T07:07:38;5.15;;;4.40;;
9771;SDS011;4925;52.588;13.370;2023-06-14T07:10:04;6.57;;;4.10;;
9771;SDS011;4925;52.588;13.370;2023-06-14T07:12:30;4.32;;;3.72;;
9771;SDS011;4925;52.588;13.370;2023-06-14T07:14:58;9.43;;;4.10;;
9771;SDS011;4925;52.588;13.370;2023-06-14T07:17:25;13.63;;;6.05;;
9771;SDS011;4925;52.588;13.370;2023-06-14T07:19:51;10.73;;;4.90;;
9771;SDS011;4925;52.588;13.370;2023-06-14T07:22:18;5.97;;;3.97;;
9771;SDS011;4925;52.588;13.370;2023-06-14T07:24:44;8.45;;;4.70;;
9771;SDS011;4925;52.588;13.370;2023-06-14T07:27:09;7.72;;;4.03;;
9771;SDS011;4925;52.588;13.370;2023-06-14T07:29:36;10.82;;;4.10;;
9771;SDS011;4925;52.588;13.370;2023-06-14T07:32:02;10.50;;;4.40;;
9771;SDS011;4925;52.588;13.370;2023-06-14T07:34:28;8.15;;;4.15;;
9771;SDS011;4925;52.588;13.370;2023-06-14T07:36:53;9.07;;;3.88;;
9771;SDS011;4925;52.588;13.370;2023-06-14T07:39:19;14.13;;;4.68;;
9771;SDS011;4925;52.588;13.370;2023-06-14T07:41:45;5.70;;;4.18;;
9771;SDS011;4925;52.588;13.370;2023-06-14T07:44:10;6.00;;;4.00;;
9771;SDS011;4925;52.588;13.370;2023-06-14T07:46:37;8.32;;;3.97;;
9771;SDS011;4925;52.588;13.370;2023-06-14T07:49:03;13.77;;;3.92;;
9771;SDS011;4925;52.588;13.370;2023-06-14T07:51:30;7.72;;;4.22;;
9771;SDS011;4925;52.588;13.370;2023-06-14T07:53:55;7.13;;;4.15;;
9771;SDS011;4925;52.588;13.370;2023-06-14T07:56:21;5.10;;;3.92;;
9771;SDS011;4925;52.588;13.370;2023-06-14T07:58:48;5.78;;;4.25;;
9771;SDS011;4925;52.588;13.370;2023-06-14T08:01:13;6.82;;;3.90;;
9771;SDS011;4925;52.588;13.370;2023-06-14T08:03:40;9.15;;;4.45;;
9771;SDS011;4925;52.588;13.370;2023-06-14T08:06:06;6.50;;;3.60;;
9771;SDS011;4925;52.588;13.370;2023-06-14T08:08:32;4.10;;;3.70;;
9771;SDS011;4925;52.588;13.370;2023-06-14T08:10:58;7.93;;;3.50;;
9771;SDS011;4925;52.588;13.370;2023-06-14T08:13:24;5.40;;;3.13;;
9771;SDS011;4925;52.588;13.370;2023-06-14T08:15:49;4.10;;;3.30;;
9771;SDS011;4925;52.588;13.370;2023-06-14T08:18:16;9.13;;;4.32;;
9771;SDS011;4925;52.588;13.370;2023-06-14T08:20:41;4.75;;;3.05;;
9771;SDS011;4925;52.588;13.370;2023-06-14T08:23:07;5.38;;;3.30;;
9771;SDS011;4925;52.588;13.370;2023-06-14T08:25:34;4.85;;;3.60;;
9771;SDS011;4925;52.588;13.370;2023-06-14T08:28:00;4.20;;;3.35;;
9771;SDS011;4925;52.588;13.370;2023-06-14T08:30:25;7.90;;;4.25;;
9771;SDS011;4925;52.588;13.370;2023-06-14T08:32:51;11.77;;;4.22;;
9771;SDS011;4925;52.588;13.370;2023-06-14T08:35:17;13.35;;;4.15;;
9771;SDS011;4925;52.588;13.370;2023-06-14T08:37:43;4.38;;;3.70;;
9771;SDS011;4925;52.588;13.370;2023-06-14T08:40:15;6.25;;;3.60;;
9771;SDS011;4925;52.588;13.370;2023-06-14T08:42:46;7.22;;;3.45;;
9771;SDS011;4925;52.588;13.370;2023-06-14T08:45:15;7.60;;;3.13;;
9771;SDS011;4925;52.588;13.370;2023-06-14T08:47:40;5.97;;;3.20;;
9771;SDS011;4925;52.588;13.370;2023-06-14T08:50:06;7.75;;;3.20;;
9771;SDS011;4925;52.588;13.370;2023-06-14T08:52:34;7.22;;;4.00;;
9771;SDS011;4925;52.588;13.370;2023-06-14T08:55:10;5.70;;;3.20;;
9771;SDS011;4925;52.588;13.370;2023-06-14T08:57:36;7.63;;;3.47;;
9771;SDS011;4925;52.588;13.370;2023-06-14T09:00:04;9.35;;;3.78;;
9771;SDS011;4925;52.588;13.370;2023-06-14T09:02:37;5.15;;;3.88;;
9771;SDS011;4925;52.588;13.370;2023-06-14T09:05:03;15.00;;;4.00;;
9771;SDS011;4925;52.588;13.370;2023-06-14T09:07:29;8.80;;;3.88;;
9771;SDS011;4925;52.588;13.370;2023-06-14T09:10:14;6.82;;;3.45;;
9771;SDS011;4925;52.588;13.370;2023-06-14T09:12:40;8.23;;;3.95;;
9771;SDS011;4925;52.588;13.370;2023-06-14T09:15:07;6.32;;;2.97;;
9771;SDS011;4925;52.588;13.370;2023-06-14T09:17:37;10.73;;;3.75;;
9771;SDS011;4925;52.588;13.370;2023-06-14T09:20:04;4.25;;;3.20;;
9771;SDS011;4925;52.588;13.370;2023-06-14T09:22:31;6.85;;;3.78;;
9771;SDS011;4925;52.588;13.370;2023-06-14T09:24:58;8.52;;;3.50;;
9771;SDS011;4925;52.588;13.370;2023-06-14T09:27:27;6.43;;;3.40;;
9771;SDS011;4925;52.588;13.370;2023-06-14T09:29:54;9.82;;;3.42;;
9771;SDS011;4925;52.588;13.370;2023-06-14T09:32:20;7.40;;;3.78;;
9771;SDS011;4925;52.588;13.370;2023-06-14T09:34:47;5.50;;;3.13;;
9771;SDS011;4925;52.588;13.370;2023-06-14T09:37:15;4.50;;;3.17;;
9771;SDS011;4925;52.588;13.370;2023-06-14T09:39:52;4.85;;;3.38;;
9771;SDS011;4925;52.588;13.370;2023-06-14T09:42:18;6.90;;;3.72;;
9771;SDS011;4925;52.588;13.370;2023-06-14T09:44:46;4.20;;;3.25;;
9771;SDS011;4925;52.588;13.370;2023-06-14T09:47:13;5.47;;;3.22;;
9771;SDS011;4925;52.588;13.370;2023-06-14T09:49:40;11.75;;;4.57;;
9771;SDS011;4925;52.588;13.370;2023-06-14T09:52:10;9.77;;;3.30;;
9771;SDS011;4925;52.588;13.370;2023-06-14T09:54:40;5.88;;;3.13;;
9771;SDS011;4925;52.588;13.370;2023-06-14T09:57:08;7.93;;;3.95;;
9771;SDS011;4925;52.588;13.370;2023-06-14T09:59:45;9.07;;;3.60;;
9771;SDS011;4925;52.588;13.370;2023-06-14T10:04:46;5.82;;;2.80;;
9771;SDS011;4925;52.588;13.370;2023-06-14T10:07:16;7.40;;;4.05;;
9771;SDS011;4925;52.588;13.370;2023-06-14T10:09:46;7.35;;;3.50;;
9771;SDS011;4925;52.588;13.370;2023-06-14T10:12:16;7.78;;;3.30;;
9771;SDS011;4925;52.588;13.370;2023-06-14T10:14:47;4.88;;;3.05;;
9771;SDS011;4925;52.588;13.370;2023-06-14T10:17:23;8.13;;;3.75;;
9771;SDS011;4925;52.588;13.370;2023-06-14T10:20:21;5.07;;;3.95;;
9771;SDS011;4925;52.588;13.370;2023-06-14T10:23:22;13.70;;;4.13;;
9771;SDS011;4925;52.588;13.370;2023-06-14T10:25:50;9.27;;;4.10;;
9771;SDS011;4925;52.588;13.370;2023-06-14T10:28:21;6.38;;;3.75;;
9771;SDS011;4925;52.588;13.370;2023-06-14T10:36:40;5.55;;;3.25;;
9771;SDS011;4925;52.588;13.370;2023-06-14T10:41:36;9.23;;;3.75;;
9771;SDS011;4925;52.588;13.370;2023-06-14T10:46:38;7.13;;;3.47;;
9771;SDS011;4925;52.588;13.370;2023-06-14T10:49:06;6.93;;;3.72;;
9771;SDS011;4925;52.588;13.370;2023-06-14T10:51:38;11.60;;;4.07;;
9771;SDS011;4925;52.588;13.370;2023-06-14T10:54:15;9.98;;;4.18;;
9771;SDS011;4925;52.588;13.370;2023-06-14T10:56:45;6.57;;;3.70;;
9771;SDS011;4925;52.588;13.370;2023-06-14T10:59:11;5.93;;;3.38;;
9771;SDS011;4925;52.588;13.370;2023-06-14T11:01:38;6.53;;;4.72;;
9771;SDS011;4925;52.588;13.370;2023-06-14T11:04:17;5.70;;;3.63;;
9771;SDS011;4925;52.588;13.370;2023-06-14T11:06:50;14.40;;;3.92;;
9771;SDS011;4925;52.588;13.370;2023-06-14T11:12:06;9.95;;;3.97;;
9771;SDS011;4925;52.588;13.370;2023-06-14T11:14:35;9.93;;;3.67;;
9771;SDS011;4925;52.588;13.370;2023-06-14T11:17:01;4.10;;;3.65;;
9771;SDS011;4925;52.588;13.370;2023-06-14T11:19:27;12.35;;;4.25;;
9771;SDS011;4925;52.588;13.370;2023-06-14T11:21:54;7.05;;;3.58;;
9771;SDS011;4925;52.588;13.370;2023-06-14T11:24:20;6.53;;;3.42;;
9771;SDS011;4925;52.588;13.370;2023-06-14T11:26:46;6.47;;;3.70;;
9771;SDS011;4925;52.588;13.370;2023-06-14T11:29:14;6.15;;;4.03;;
9771;SDS011;4925;52.588;13.370;2023-06-14T11:31:43;4.18;;;3.20;;
9771;SDS011;4925;52.588;13.370;2023-06-14T11:34:12;6.65;;;3.45;;
9771;SDS011;4925;52.588;13.370;2023-06-14T11:36:38;6.75;;;3.97;;
9771;SDS011;4925;52.588;13.370;2023-06-14T11:39:05;8.02;;;4.25;;
9771;SDS011;4925;52.588;13.370;2023-06-14T11:41:36;11.10;;;5.25;;
9771;SDS011;4925;52.588;13.370;2023-06-14T11:44:06;11.57;;;4.65;;
9771;SDS011;4925;52.588;13.370;2023-06-14T11:46:33;6.43;;;3.55;;
9771;SDS011;4925;52.588;13.370;2023-06-14T11:48:59;5.82;;;3.67;;
9771;SDS011;4925;52.588;13.370;2023-06-14T11:51:28;7.45;;;3.70;;
9771;SDS011;4925;52.588;13.370;2023-06-14T11:53:57;7.85;;;3.55;;
9771;SDS011;4925;52.588;13.370;2023-06-14T11:56:23;4.15;;;3.00;;
9771;SDS011;4925;52.588;13.370;2023-06-14T11:58:50;6.82;;;3.60;;
9771;SDS011;4925;52.588;13.370;2023-06-14T12:01:17;9.30;;;3.70;;
9771;SDS011;4925;52.588;13.370;2023-06-14T12:03:49;9.07;;;3.42;;
9771;SDS011;4925;52.588;13.370;2023-06-14T12:06:16;7.45;;;3.50;;
9771;SDS011;4925;52.588;13.370;2023-06-14T12:08:50;6.47;;;3.50;;
9771;SDS011;4925;52.588;13.370;2023-06-14T12:11:17;5.32;;;3.80;;
9771;SDS011;4925;52.588;13.370;2023-06-14T12:13:43;6.97;;;2.92;;
9771;SDS011;4925;52.588;13.370;2023-06-14T12:16:11;5.18;;;3.05;;
9771;SDS011;4925;52.588;13.370;2023-06-14T12:18:37;5.47;;;3.45;;
9771;SDS011;4925;52.588;13.370;2023-06-14T12:21:05;11.75;;;3.42;;
9771;SDS011;4925;52.588;13.370;2023-06-14T12:26:12;5.57;;;3.05;;
9771;SDS011;4925;52.588;13.370;2023-06-14T12:28:41;3.83;;;3.25;;
9771;SDS011;4925;52.588;13.370;2023-06-14T12:31:08;8.90;;;4.00;;
9771;SDS011;4925;52.588;13.370;2023-06-14T12:33:34;4.07;;;3.30;;
9771;SDS011;4925;52.588;13.370;2023-06-14T12:36:02;3.95;;;3.25;;
9771;SDS011;4925;52.588;13.370;2023-06-14T12:38:29;4.22;;;3.20;;
9771;SDS011;4925;52.588;13.370;2023-06-14T12:40:54;13.07;;;4.53;;
9771;SDS011;4925;52.588;13.370;2023-06-14T12:43:20;16.00;;;4.90;;
9771;SDS011;4925;52.588;13.370;2023-06-14T12:45:45;13.23;;;11.63;;
9771;SDS011;4925;52.588;13.370;2023-06-14T12:48:11;9.32;;;5.18;;
9771;SDS011;4925;52.588;13.370;2023-06-14T12:50:37;7.10;;;3.08;;
9771;SDS011;4925;52.588;13.370;2023-06-14T12:53:02;7.50;;;3.55;;
9771;SDS011;4925;52.588;13.370;2023-06-14T12:55:28;7.72;;;3.47;;
9771;SDS011;4925;52.588;13.370;2023-06-14T12:57:54;6.90;;;3.25;;
9771;SDS011;4925;52.588;13.370;2023-06-14T13:00:20;7.25;;;3.45;;
9771;SDS011;4925;52.588;13.370;2023-06-14T13:02:46;5.97;;;3.25;;
9771;SDS011;4925;52.588;13.370;2023-06-14T13:05:12;10.45;;;3.33;;
9771;SDS011;4925;52.588;13.370;2023-06-14T13:07:38;3.85;;;3.10;;
9771;SDS011;4925;52.588;13.370;2023-06-14T13:10:03;5.22;;;2.83;;
9771;SDS011;4925;52.588;13.370;2023-06-14T13:12:29;4.65;;;2.97;;
9771;SDS011;4925;52.588;13.370;2023-06-14T13:14:55;5.53;;;3.33;;
9771;SDS011;4925;52.588;13.370;2023-06-14T13:17:21;6.00;;;2.95;;
9771;SDS011;4925;52.588;13.370;2023-06-14T13:19:46;5.82;;;2.97;;
9771;SDS011;4925;52.588;13.370;2023-06-14T13:22:12;4.90;;;3.17;;
9771;SDS011;4925;52.588;13.370;2023-06-14T13:24:38;5.57;;;3.53;;
9771;SDS011;4925;52.588;13.370;2023-06-14T13:27:03;3.25;;;2.95;;
9771;SDS011;4925;52.588;13.370;2023-06-14T13:29:29;5.45;;;3.33;;
9771;SDS011;4925;52.588;13.370;2023-06-14T13:31:55;9.40;;;3.00;;
9771;SDS011;4925;52.588;13.370;2023-06-14T13:34:21;9.57;;;2.75;;
9771;SDS011;4925;52.588;13.370;2023-06-14T13:36:48;3.10;;;2.80;;
9771;SDS011;4925;52.588;13.370;2023-06-14T13:39:14;7.13;;;3.30;;
9771;SDS011;4925;52.588;13.370;2023-06-14T13:41:40;8.45;;;3.13;;
9771;SDS011;4925;52.588;13.370;2023-06-14T13:44:05;7.30;;;2.80;;
9771;SDS011;4925;52.588;13.370;2023-06-14T13:46:31;8.13;;;2.72;;
9771;SDS011;4925;52.588;13.370;2023-06-14T13:48:57;4.60;;;2.88;;
9771;SDS011;4925;52.588;13.370;2023-06-14T13:51:23;12.73;;;8.63;;
9771;SDS011;4925;52.588;13.370;2023-06-14T13:53:49;21.23;;;10.95;;
9771;SDS011;4925;52.588;13.370;2023-06-14T13:56:15;6.72;;;3.28;;
9771;SDS011;4925;52.588;13.370;2023-06-14T13:58:41;4.53;;;2.83;;
9771;SDS011;4925;52.588;13.370;2023-06-14T14:01:07;8.15;;;3.13;;
9771;SDS011;4925;52.588;13.370;2023-06-14T14:03:33;4.75;;;3.08;;
9771;SDS011;4925;52.588;13.370;2023-06-14T14:06:00;52.53;;;7.25;;
9771;SDS011;4925;52.588;13.370;2023-06-14T14:08:27;7.60;;;4.22;;
9771;SDS011;4925;52.588;13.370;2023-06-14T14:10:53;7.78;;;3.35;;
9771;SDS011;4925;52.588;13.370;2023-06-14T14:13:19;5.95;;;2.88;;
9771;SDS011;4925;52.588;13.370;2023-06-14T14:15:47;4.30;;;3.25;;
9771;SDS011;4925;52.588;13.370;2023-06-14T14:18:14;6.85;;;3.15;;
9771;SDS011;4925;52.588;13.370;2023-06-14T14:20:40;8.07;;;3.72;;
9771;SDS011;4925;52.588;13.370;2023-06-14T14:23:06;5.57;;;2.90;;
9771;SDS011;4925;52.588;13.370;2023-06-14T14:25:32;7.68;;;3.00;;
9771;SDS011;4925;52.588;13.370;2023-06-14T14:27:57;10.23;;;3.55;;
9771;SDS011;4925;52.588;13.370;2023-06-14T14:30:23;6.45;;;2.88;;
9771;SDS011;4925;52.588;13.370;2023-06-14T14:32:51;7.88;;;3.20;;
9771;SDS011;4925;52.588;13.370;2023-06-14T14:35:18;10.88;;;3.88;;
9771;SDS011;4925;52.588;13.370;2023-06-14T14:37:44;7.55;;;3.40;;
9771;SDS011;4925;52.588;13.370;2023-06-14T14:40:10;10.20;;;3.53;;
9771;SDS011;4925;52.588;13.370;2023-06-14T14:42:36;5.60;;;2.60;;
9771;SDS011;4925;52.588;13.370;2023-06-14T14:45:02;4.30;;;3.00;;
9771;SDS011;4925;52.588;13.370;2023-06-14T14:47:28;5.95;;;3.17;;
9771;SDS011;4925;52.588;13.370;2023-06-14T14:49:54;6.18;;;2.90;;
9771;SDS011;4925;52.588;13.370;2023-06-14T14:52:20;7.82;;;2.85;;
9771;SDS011;4925;52.588;13.370;2023-06-14T14:54:45;4.75;;;2.80;;
9771;SDS011;4925;52.588;13.370;2023-06-14T14:57:11;8.25;;;2.72;;
9771;SDS011;4925;52.588;13.370;2023-06-14T14:59:37;10.80;;;3.60;;
9771;SDS011;4925;52.588;13.370;2023-06-14T15:02:02;3.80;;;2.97;;
9771;SDS011;4925;52.588;13.370;2023-06-14T15:04:28;5.75;;;3.10;;
9771;SDS011;4925;52.588;13.370;2023-06-14T15:06:54;4.95;;;2.80;;
9771;SDS011;4925;52.588;13.370;2023-06-14T15:09:19;6.45;;;3.20;;
9771;SDS011;4925;52.588;13.370;2023-06-14T15:11:45;11.32;;;3.08;;
9771;SDS011;4925;52.588;13.370;2023-06-14T15:14:11;8.35;;;3.33;;
9771;SDS011;4925;52.588;13.370;2023-06-14T15:16:37;3.33;;;2.75;;
9771;SDS011;4925;52.588;13.370;2023-06-14T15:19:02;5.07;;;2.72;;
9771;SDS011;4925;52.588;13.370;2023-06-14T15:21:28;4.30;;;2.95;;
9771;SDS011;4925;52.588;13.370;2023-06-14T15:23:54;4.35;;;2.80;;
9771;SDS011;4925;52.588;13.370;2023-06-14T15:26:19;3.67;;;3.15;;
9771;SDS011;4925;52.588;13.370;2023-06-14T15:28:45;7.60;;;3.75;;